sensor_id;sensor_type;location;lat;lon;timestamp;P1;durP1;ratioP1;P2;durP2;ratioP2
36303;SDS011;22335;49.800;8.596;2022-10-24T00:03:58;13.10;;;5.75;;
36303;SDS011;22335;49.800;8.596;2022-10-24T00:11:07;7.63;;;5.75;;
36303;SDS011;22335;49.800;8.596;2022-10-24T00:17:58;12.90;;;6.20;;
36303;SDS011;22335;49.800;8.596;2022-10-24T00:24:45;10.93;;;6.40;;
36303;SDS011;22335;49.800;8.596;2022-10-24T00:31:30;8.50;;;5.70;;
36303;SDS011;22335;49.800;8.596;2022-10-24T00:38:18;7.53;;;5.90;;
36303;SDS011;22335;49.800;8.596;2022-10-24T00:52:32;10.45;;;5.82;;
36303;SDS011;22335;49.800;8.596;2022-10-24T00:59:23;10.98;;;6.68;;
36303;SDS011;22335;49.800;8.596;2022-10-24T01:06:19;11.07;;;6.15;;
36303;SDS011;22335;49.800;8.596;2022-10-24T01:13:19;10.25;;;6.28;;
36303;SDS011;22335;49.800;8.596;2022-10-24T01:20:21;12.38;;;6.65;;
36303;SDS011;22335;49.800;8.596;2022-10-24T01:27:38;10.03;;;6.00;;
36303;SDS011;22335;49.800;8.596;2022-10-24T01:34:42;8.93;;;5.47;;
36303;SDS011;22335;49.800;8.596;2022-10-24T01:41:33;10.80;;;6.20;;
36303;SDS011;22335;49.800;8.596;2022-10-24T01:48:20;10.38;;;5.35;;
36303;SDS011;22335;49.800;8.596;2022-10-24T01:55:11;6.70;;;6.10;;
36303;SDS011;22335;49.800;8.596;2022-10-24T02:01:57;9.32;;;6.00;;
36303;SDS011;22335;49.800;8.596;2022-10-24T02:08:50;9.20;;;5.57;;
36303;SDS011;22335;49.800;8.596;2022-10-24T02:15:43;6.70;;;5.82;;
36303;SDS011;22335;49.800;8.596;2022-10-24T02:22:37;10.55;;;5.35;;
36303;SDS011;22335;49.800;8.596;2022-10-24T02:29:33;10.30;;;6.10;;
36303;SDS011;22335;49.800;8.596;2022-10-24T02:36:28;9.38;;;5.38;;
36303;SDS011;22335;49.800;8.596;2022-10-24T02:43:16;7.30;;;6.18;;
36303;SDS011;22335;49.800;8.596;2022-10-24T03:03:55;9.00;;;5.72;;
36303;SDS011;22335;49.800;8.596;2022-10-24T03:10:41;6.93;;;5.75;;
36303;SDS011;22335;49.800;8.596;2022-10-24T03:17:27;9.37;;;6.47;;
36303;SDS011;22335;49.800;8.596;2022-10-24T03:24:15;8.07;;;5.43;;
36303;SDS011;22335;49.800;8.596;2022-10-24T03:31:20;7.40;;;6.00;;
36303;SDS011;22335;49.800;8.596;2022-10-24T03:38:05;7.50;;;5.57;;
36303;SDS011;22335;49.800;8.596;2022-10-24T03:44:53;10.30;;;5.83;;
36303;SDS011;22335;49.800;8.596;2022-10-24T03:51:39;9.88;;;6.10;;
36303;SDS011;22335;49.800;8.596;2022-10-24T03:58:24;11.10;;;5.37;;
36303;SDS011;22335;49.800;8.596;2022-10-24T04:05:13;9.55;;;6.25;;
36303;SDS011;22335;49.800;8.596;2022-10-24T04:11:58;15.45;;;6.63;;
36303;SDS011;22335;49.800;8.596;2022-10-24T04:18:43;13.13;;;6.50;;
36303;SDS011;22335;49.800;8.596;2022-10-24T04:25:32;6.63;;;5.87;;
36303;SDS011;22335;49.800;8.596;2022-10-24T04:32:17;10.88;;;6.20;;
36303;SDS011;22335;49.800;8.596;2022-10-24T04:39:03;13.50;;;6.20;;
36303;SDS011;22335;49.800;8.596;2022-10-24T04:45:51;8.63;;;5.75;;
36303;SDS011;22335;49.800;8.596;2022-10-24T04:52:37;9.15;;;5.80;;
36303;SDS011;22335;49.800;8.596;2022-10-24T04:59:23;10.57;;;5.95;;
36303;SDS011;22335;49.800;8.596;2022-10-24T05:06:11;7.60;;;6.10;;
36303;SDS011;22335;49.800;8.596;2022-10-24T05:12:56;10.05;;;5.82;;
36303;SDS011;22335;49.800;8.596;2022-10-24T05:19:42;11.37;;;6.10;;
36303;SDS011;22335;49.800;8.596;2022-10-24T05:26:30;6.93;;;5.60;;
36303;SDS011;22335;49.800;8.596;2022-10-24T05:33:15;9.27;;;5.50;;
36303;SDS011;22335;49.800;8.596;2022-10-24T05:40:01;14.30;;;5.93;;
36303;SDS011;22335;49.800;8.596;2022-10-24T05:46:49;12.45;;;5.80;;
36303;SDS011;22335;49.800;8.596;2022-10-24T05:53:35;11.85;;;5.40;;
36303;SDS011;22335;49.800;8.596;2022-10-24T06:00:21;10.60;;;6.13;;
36303;SDS011;22335;49.800;8.596;2022-10-24T06:07:09;13.18;;;6.05;;
36303;SDS011;22335;49.800;8.596;2022-10-24T06:13:55;15.70;;;6.15;;
36303;SDS011;22335;49.800;8.596;2022-10-24T06:20:43;12.77;;;6.18;;
36303;SDS011;22335;49.800;8.596;2022-10-24T06:27:35;13.38;;;6.65;;
36303;SDS011;22335;49.800;8.596;2022-10-24T06:34:21;8.20;;;5.97;;
36303;SDS011;22335;49.800;8.596;2022-10-24T06:41:07;11.07;;;5.87;;
36303;SDS011;22335;49.800;8.596;2022-10-24T06:47:57;13.13;;;5.97;;
36303;SDS011;22335;49.800;8.596;2022-10-24T06:54:42;11.15;;;6.38;;
36303;SDS011;22335;49.800;8.596;2022-10-24T07:01:27;9.30;;;6.03;;
36303;SDS011;22335;49.800;8.596;2022-10-24T07:08:15;8.57;;;6.37;;
36303;SDS011;22335;49.800;8.596;2022-10-24T07:15:01;12.20;;;6.75;;
36303;SDS011;22335;49.800;8.596;2022-10-24T07:28:35;15.60;;;7.22;;
36303;SDS011;22335;49.800;8.596;2022-10-24T07:35:22;12.82;;;6.40;;
36303;SDS011;22335;49.800;8.596;2022-10-24T07:42:07;13.00;;;6.83;;
36303;SDS011;22335;49.800;8.596;2022-10-24T07:48:57;11.15;;;6.80;;
36303;SDS011;22335;49.800;8.596;2022-10-24T07:55:43;13.40;;;6.45;;
36303;SDS011;22335;49.800;8.596;2022-10-24T08:02:29;17.57;;;6.90;;
36303;SDS011;22335;49.800;8.596;2022-10-24T08:09:17;11.57;;;6.60;;
36303;SDS011;22335;49.800;8.596;2022-10-24T08:16:03;11.30;;;6.88;;
36303;SDS011;22335;49.800;8.596;2022-10-24T08:22:50;8.10;;;6.22;;
36303;SDS011;22335;49.800;8.596;2022-10-24T08:29:38;12.13;;;6.43;;
36303;SDS011;22335;49.800;8.596;2022-10-24T08:36:24;6.88;;;6.00;;
36303;SDS011;22335;49.800;8.596;2022-10-24T08:43:12;11.43;;;6.57;;
36303;SDS011;22335;49.800;8.596;2022-10-24T08:50:01;14.13;;;6.10;;
36303;SDS011;22335;49.800;8.596;2022-10-24T08:56:50;14.48;;;6.72;;
36303;SDS011;22335;49.800;8.596;2022-10-24T09:03:40;11.57;;;6.22;;
36303;SDS011;22335;49.800;8.596;2022-10-24T09:10:40;10.00;;;7.13;;
36303;SDS011;22335;49.800;8.596;2022-10-24T09:17:34;9.75;;;6.40;;
36303;SDS011;22335;49.800;8.596;2022-10-24T09:24:25;9.30;;;6.65;;
36303;SDS011;22335;49.800;8.596;2022-10-24T09:31:23;9.15;;;6.50;;
36303;SDS011;22335;49.800;8.596;2022-10-24T09:38:25;8.43;;;5.78;;
36303;SDS011;22335;49.800;8.596;2022-10-24T09:45:17;9.02;;;5.95;;
36303;SDS011;22335;49.800;8.596;2022-10-24T09:52:19;10.73;;;5.60;;
36303;SDS011;22335;49.800;8.596;2022-10-24T09:59:16;9.88;;;5.97;;
36303;SDS011;22335;49.800;8.596;2022-10-24T10:06:17;7.53;;;5.90;;
36303;SDS011;22335;49.800;8.596;2022-10-24T10:13:15;6.30;;;5.70;;
36303;SDS011;22335;49.800;8.596;2022-10-24T10:20:05;11.48;;;6.13;;
36303;SDS011;22335;49.800;8.596;2022-10-24T10:34:18;13.25;;;5.88;;
36303;SDS011;22335;49.800;8.596;2022-10-24T10:41:07;6.38;;;5.10;;
36303;SDS011;22335;49.800;8.596;2022-10-24T10:48:06;8.88;;;5.65;;
36303;SDS011;22335;49.800;8.596;2022-10-24T10:55:13;8.05;;;5.70;;
36303;SDS011;22335;49.800;8.596;2022-10-24T11:02:14;8.25;;;5.70;;
36303;SDS011;22335;49.800;8.596;2022-10-24T11:09:32;7.53;;;5.20;;
36303;SDS011;22335;49.800;8.596;2022-10-24T11:16:27;10.50;;;5.65;;
36303;SDS011;22335;49.800;8.596;2022-10-24T11:23:15;9.85;;;5.28;;
36303;SDS011;22335;49.800;8.596;2022-10-24T11:30:11;5.90;;;5.30;;
36303;SDS011;22335;49.800;8.596;2022-10-24T11:37:05;8.10;;;5.22;;
36303;SDS011;22335;49.800;8.596;2022-10-24T11:43:58;7.30;;;5.38;;
36303;SDS011;22335;49.800;8.596;2022-10-24T11:50:54;12.27;;;5.77;;
36303;SDS011;22335;49.800;8.596;2022-10-24T11:57:47;9.55;;;5.20;;
36303;SDS011;22335;49.800;8.596;2022-10-24T12:04:43;8.07;;;5.30;;
36303;SDS011;22335;49.800;8.596;2022-10-24T12:11:50;8.02;;;5.35;;
36303;SDS011;22335;49.800;8.596;2022-10-24T12:19:12;8.00;;;4.80;;
36303;SDS011;22335;49.800;8.596;2022-10-24T12:26:02;12.48;;;5.28;;
36303;SDS011;22335;49.800;8.596;2022-10-24T12:33:06;7.97;;;5.25;;
36303;SDS011;22335;49.800;8.596;2022-10-24T12:39:58;5.43;;;4.40;;
36303;SDS011;22335;49.800;8.596;2022-10-24T12:46:53;8.25;;;4.88;;
36303;SDS011;22335;49.800;8.596;2022-10-24T13:01:06;8.90;;;4.68;;
36303;SDS011;22335;49.800;8.596;2022-10-24T13:08:11;7.38;;;4.88;;
36303;SDS011;22335;49.800;8.596;2022-10-24T13:15:27;8.10;;;4.90;;
36303;SDS011;22335;49.800;8.596;2022-10-24T13:22:29;6.60;;;5.53;;
36303;SDS011;22335;49.800;8.596;2022-10-24T13:36:41;6.22;;;4.53;;
36303;SDS011;22335;49.800;8.596;2022-10-24T13:43:31;7.53;;;4.53;;
36303;SDS011;22335;49.800;8.596;2022-10-24T13:50:17;8.27;;;5.63;;
36303;SDS011;22335;49.800;8.596;2022-10-24T13:57:20;9.40;;;4.65;;
36303;SDS011;22335;49.800;8.596;2022-10-24T14:04:14;8.07;;;4.78;;
36303;SDS011;22335;49.800;8.596;2022-10-24T14:11:00;7.47;;;4.60;;
36303;SDS011;22335;49.800;8.596;2022-10-24T14:17:52;7.40;;;4.78;;
36303;SDS011;22335;49.800;8.596;2022-10-24T14:24:44;9.88;;;5.45;;
36303;SDS011;22335;49.800;8.596;2022-10-24T14:31:31;7.85;;;4.72;;
36303;SDS011;22335;49.800;8.596;2022-10-24T14:38:18;9.88;;;4.97;;
36303;SDS011;22335;49.800;8.596;2022-10-24T14:45:19;9.38;;;3.92;;
36303;SDS011;22335;49.800;8.596;2022-10-24T14:52:07;5.70;;;3.67;;
36303;SDS011;22335;49.800;8.596;2022-10-24T14:58:58;6.38;;;4.68;;
36303;SDS011;22335;49.800;8.596;2022-10-24T15:05:57;6.88;;;4.35;;
36303;SDS011;22335;49.800;8.596;2022-10-24T15:12:51;9.80;;;4.75;;
36303;SDS011;22335;49.800;8.596;2022-10-24T15:19:43;10.23;;;4.75;;
36303;SDS011;22335;49.800;8.596;2022-10-24T15:26:32;6.97;;;4.35;;
36303;SDS011;22335;49.800;8.596;2022-10-24T15:33:20;6.47;;;4.40;;
36303;SDS011;22335;49.800;8.596;2022-10-24T15:40:11;7.72;;;4.43;;
36303;SDS011;22335;49.800;8.596;2022-10-24T15:47:04;6.85;;;3.83;;
36303;SDS011;22335;49.800;8.596;2022-10-24T15:53:49;7.45;;;4.40;;
36303;SDS011;22335;49.800;8.596;2022-10-24T16:00:36;6.97;;;4.25;;
36303;SDS011;22335;49.800;8.596;2022-10-24T16:07:25;6.63;;;4.32;;
36303;SDS011;22335;49.800;8.596;2022-10-24T16:14:11;9.35;;;4.20;;
36303;SDS011;22335;49.800;8.596;2022-10-24T16:20:57;5.25;;;4.65;;
36303;SDS011;22335;49.800;8.596;2022-10-24T16:27:46;8.73;;;4.00;;
36303;SDS011;22335;49.800;8.596;2022-10-24T16:34:32;5.07;;;4.00;;
36303;SDS011;22335;49.800;8.596;2022-10-24T16:41:18;6.82;;;4.13;;
36303;SDS011;22335;49.800;8.596;2022-10-24T16:48:09;5.22;;;4.57;;
36303;SDS011;22335;49.800;8.596;2022-10-24T16:54:54;5.65;;;4.28;;
36303;SDS011;22335;49.800;8.596;2022-10-24T17:01:40;7.05;;;4.55;;
36303;SDS011;22335;49.800;8.596;2022-10-24T17:08:28;5.80;;;3.90;;
36303;SDS011;22335;49.800;8.596;2022-10-24T17:15:14;12.75;;;3.85;;
36303;SDS011;22335;49.800;8.596;2022-10-24T17:22:03;5.90;;;4.30;;
36303;SDS011;22335;49.800;8.596;2022-10-24T17:28:51;4.55;;;3.88;;
36303;SDS011;22335;49.800;8.596;2022-10-24T17:35:39;4.63;;;3.97;;
36303;SDS011;22335;49.800;8.596;2022-10-24T17:42:31;4.53;;;4.13;;
36303;SDS011;22335;49.800;8.596;2022-10-24T17:49:19;5.07;;;3.97;;
36303;SDS011;22335;49.800;8.596;2022-10-24T17:56:05;8.35;;;4.47;;
36303;SDS011;22335;49.800;8.596;2022-10-24T18:03:12;6.78;;;4.38;;
36303;SDS011;22335;49.800;8.596;2022-10-24T18:10:02;7.38;;;4.63;;
36303;SDS011;22335;49.800;8.596;2022-10-24T18:16:48;6.85;;;4.63;;
36303;SDS011;22335;49.800;8.596;2022-10-24T18:23:34;10.20;;;4.90;;
36303;SDS011;22335;49.800;8.596;2022-10-24T18:38:09;7.32;;;4.78;;
36303;SDS011;22335;49.800;8.596;2022-10-24T18:44:59;9.73;;;5.32;;
36303;SDS011;22335;49.800;8.596;2022-10-24T18:51:47;6.18;;;5.60;;
36303;SDS011;22335;49.800;8.596;2022-10-24T18:58:46;6.55;;;4.82;;
36303;SDS011;22335;49.800;8.596;2022-10-24T19:05:40;6.28;;;4.93;;
36303;SDS011;22335;49.800;8.596;2022-10-24T19:12:35;11.20;;;5.63;;
36303;SDS011;22335;49.800;8.596;2022-10-24T19:19:25;10.48;;;5.88;;
36303;SDS011;22335;49.800;8.596;2022-10-24T19:26:15;9.52;;;5.60;;
36303;SDS011;22335;49.800;8.596;2022-10-24T19:33:00;10.93;;;5.67;;
36303;SDS011;22335;49.800;8.596;2022-10-24T19:39:48;8.73;;;6.73;;
36303;SDS011;22335;49.800;8.596;2022-10-24T19:46:33;9.40;;;6.57;;
36303;SDS011;22335;49.800;8.596;2022-10-24T19:53:19;7.30;;;6.00;;
36303;SDS011;22335;49.800;8.596;2022-10-24T20:00:07;6.43;;;5.53;;
36303;SDS011;22335;49.800;8.596;2022-10-24T20:06:54;7.82;;;5.72;;
36303;SDS011;22335;49.800;8.596;2022-10-24T20:13:40;6.57;;;5.30;;
36303;SDS011;22335;49.800;8.596;2022-10-24T20:20:29;7.18;;;5.43;;
36303;SDS011;22335;49.800;8.596;2022-10-24T20:27:16;7.70;;;5.72;;
36303;SDS011;22335;49.800;8.596;2022-10-24T20:34:05;6.20;;;5.20;;
36303;SDS011;22335;49.800;8.596;2022-10-24T20:40:56;5.60;;;5.00;;
36303;SDS011;22335;49.800;8.596;2022-10-24T20:47:45;6.57;;;5.30;;
36303;SDS011;22335;49.800;8.596;2022-10-24T20:54:30;6.22;;;5.60;;
36303;SDS011;22335;49.800;8.596;2022-10-24T21:01:19;6.32;;;5.43;;
36303;SDS011;22335;49.800;8.596;2022-10-24T21:08:06;7.13;;;4.53;;
36303;SDS011;22335;49.800;8.596;2022-10-24T21:14:52;4.82;;;4.43;;
36303;SDS011;22335;49.800;8.596;2022-10-24T21:21:40;4.93;;;4.63;;
36303;SDS011;22335;49.800;8.596;2022-10-24T21:28:26;5.03;;;4.57;;
36303;SDS011;22335;49.800;8.596;2022-10-24T21:42:00;4.95;;;4.38;;
36303;SDS011;22335;49.800;8.596;2022-10-24T21:48:46;4.68;;;4.20;;
36303;SDS011;22335;49.800;8.596;2022-10-24T21:55:33;5.13;;;4.55;;
36303;SDS011;22335;49.800;8.596;2022-10-24T22:02:20;5.97;;;5.00;;
36303;SDS011;22335;49.800;8.596;2022-10-24T22:09:07;4.50;;;4.20;;
36303;SDS011;22335;49.800;8.596;2022-10-24T22:15:56;4.70;;;4.30;;
36303;SDS011;22335;49.800;8.596;2022-10-24T22:22:44;4.88;;;4.55;;
36303;SDS011;22335;49.800;8.596;2022-10-24T22:29:30;4.90;;;4.03;;
36303;SDS011;22335;49.800;8.596;2022-10-24T22:36:17;4.95;;;4.50;;
36303;SDS011;22335;49.800;8.596;2022-10-24T22:43:26;5.97;;;4.70;;
36303;SDS011;22335;49.800;8.596;2022-10-24T22:50:23;5.90;;;4.22;;
36303;SDS011;22335;49.800;8.596;2022-10-24T22:57:28;5.18;;;4.80;;
36303;SDS011;22335;49.800;8.596;2022-10-24T23:04:38;5.03;;;4.67;;
36303;SDS011;22335;49.800;8.596;2022-10-24T23:11:30;4.57;;;4.20;;
36303;SDS011;22335;49.800;8.596;2022-10-24T23:18:16;5.22;;;4.75;;
36303;SDS011;22335;49.800;8.596;2022-10-24T23:25:07;5.10;;;4.78;;
36303;SDS011;22335;49.800;8.596;2022-10-24T23:31:54;4.93;;;4.60;;
36303;SDS011;22335;49.800;8.596;2022-10-24T23:38:41;5.15;;;4.68;;
36303;SDS011;22335;49.800;8.596;2022-10-24T23:45:33;5.72;;;4.72;;
36303;SDS011;22335;49.800;8.596;2022-10-24T23:52:23;4.85;;;4.35;;
36303;SDS011;22335;49.800;8.596;2022-10-24T23:59:16;5.13;;;4.72;;
